createdAt,value
2022-08-07T00:00:40.050Z,101490.94
2022-08-07T00:03:09.060Z,101291.72
2022-08-07T00:05:39.132Z,101491.78
2022-08-07T00:08:08.057Z,101426.56
2022-08-07T00:10:47.775Z,101374.69
2022-08-07T00:13:26.645Z,101543.47
2022-08-07T00:15:56.021Z,101539.16
2022-08-07T00:18:27.604Z,101376.44
2022-08-07T00:21:01.380Z,101545.38
2022-08-07T00:23:31.653Z,101478.47
2022-08-07T00:26:06.955Z,101486.94
2022-08-07T00:28:46.180Z,101542.94
2022-08-07T00:31:37.524Z,101419.03
2022-08-07T00:34:08.981Z,101420.88
2022-08-07T00:36:43.118Z,101388.78
2022-08-07T00:39:16.437Z,101532.16
2022-08-07T00:42:02.546Z,101251.91
2022-08-07T00:44:33.943Z,101461.94
2022-08-07T00:47:02.269Z,101320.44
2022-08-07T00:50:20.737Z,101457.81
2022-08-07T00:52:20.283Z,101230.91
2022-08-07T00:54:53.962Z,101266.38
2022-08-07T00:57:25.187Z,101221.56
2022-08-07T00:59:54.247Z,101247.16
2022-08-07T01:02:28.638Z,101169.78
2022-08-07T01:04:59.310Z,101497.13
2022-08-07T01:07:31.103Z,101506.47
2022-08-07T01:10:06.968Z,101205.88
2022-08-07T01:12:53.723Z,101230.41
2022-08-07T01:15:36.120Z,101328.00
2022-08-07T01:18:17.722Z,101267.06
2022-08-07T01:20:59.758Z,101228.06
2022-08-07T01:23:35.453Z,101496.88
2022-08-07T01:26:12.001Z,101143.34
2022-08-07T01:28:45.971Z,101379.06
2022-08-07T01:31:17.961Z,101264.78
2022-08-07T01:33:56.141Z,101253.66
2022-08-07T01:36:33.833Z,101501.41
2022-08-07T01:39:11.000Z,101251.31
2022-08-07T01:42:00.477Z,101252.13
2022-08-07T01:44:33.840Z,101252.13
2022-08-07T01:47:14.608Z,101446.41
2022-08-07T01:49:54.843Z,101295.47
2022-08-07T01:52:29.656Z,101149.75
2022-08-07T01:55:03.877Z,101313.50
2022-08-07T01:58:01.660Z,101377.97
2022-08-07T02:00:32.835Z,101506.19
2022-08-07T02:03:11.895Z,101194.94
2022-08-07T02:06:00.072Z,101434.44
2022-08-07T02:08:54.282Z,101316.63
2022-08-07T02:11:31.097Z,101422.56
2022-08-07T02:14:40.493Z,101184.31
2022-08-07T02:17:24.722Z,101412.47
2022-08-07T02:20:06.751Z,101203.88
2022-08-07T02:22:41.581Z,101176.13
2022-08-07T02:25:18.201Z,101237.19
2022-08-07T02:28:01.489Z,101384.59
2022-08-07T02:30:37.700Z,101407.56
2022-08-07T02:33:09.506Z,101390.88
2022-08-07T02:36:29.723Z,101307.81
2022-08-07T02:38:38.878Z,101414.53
2022-08-07T02:41:10.690Z,101405.22
2022-08-07T02:43:48.930Z,101332.34
2022-08-07T02:46:22.793Z,101150.97
2022-08-07T02:48:56.889Z,101359.94
2022-08-07T02:51:42.302Z,101151.06
2022-08-07T02:54:14.353Z,101375.84
2022-08-07T02:57:01.357Z,101383.56
2022-08-07T02:59:38.749Z,101152.91
2022-08-07T03:02:12.159Z,101188.63
2022-08-07T03:04:42.381Z,101270.84
2022-08-07T03:07:18.331Z,101170.72
2022-08-07T03:10:08.784Z,101148.72
2022-08-07T03:12:39.486Z,101478.00
2022-08-07T03:15:15.353Z,101171.78
2022-08-07T03:18:09.107Z,101497.66
2022-08-07T03:20:39.473Z,101276.25
2022-08-07T03:25:58.511Z,101507.22
2022-08-07T03:28:37.318Z,101363.59
2022-08-07T03:31:42.087Z,101318.03
2022-08-07T03:34:27.395Z,101364.72
2022-08-07T03:37:11.894Z,101145.78
2022-08-07T03:40:13.099Z,101149.13
2022-08-07T03:42:42.683Z,101317.09
2022-08-07T03:45:29.776Z,101148.44
2022-08-07T03:48:04.893Z,101500.72
2022-08-07T03:54:05.994Z,101184.97
2022-08-07T03:57:08.407Z,101150.28
2022-08-07T04:00:01.900Z,101496.53
2022-08-07T04:02:49.478Z,101136.63
2022-08-07T04:06:37.477Z,101132.53
2022-08-07T04:25:11.851Z,101131.63
2022-08-07T04:31:09.701Z,101495.75
2022-08-07T04:33:55.088Z,101504.28
2022-08-07T04:37:23.142Z,101386.06
2022-08-07T04:40:22.263Z,101492.16
2022-08-07T04:44:14.486Z,101180.72
2022-08-07T06:14:13.094Z,101354.84
2022-08-07T06:26:01.656Z,101305.75
2022-08-07T06:28:32.019Z,101327.66
2022-08-07T06:31:00.394Z,101503.00
2022-08-07T06:33:30.025Z,101413.94
2022-08-07T06:36:13.415Z,101433.63
2022-08-07T06:38:58.835Z,101432.97
2022-08-07T06:42:01.138Z,101474.84
2022-08-07T06:44:51.165Z,101384.53
2022-08-07T06:47:21.117Z,101485.22
2022-08-07T06:49:52.377Z,101488.25
2022-08-07T06:52:36.485Z,101476.56
2022-08-07T06:55:33.828Z,101470.13
2022-08-07T06:58:04.733Z,101446.97
2022-08-07T07:00:43.888Z,101459.00
2022-08-07T07:03:17.104Z,101444.91
2022-08-07T07:06:04.188Z,101464.69
2022-08-07T07:08:35.933Z,101470.75
2022-08-07T07:11:14.544Z,101468.81
2022-08-07T07:14:01.592Z,101457.84
2022-08-07T07:16:39.205Z,101427.44
2022-08-07T07:19:55.225Z,101466.19
2022-08-07T07:22:32.270Z,101440.28
2022-08-07T07:25:13.936Z,101468.41
2022-08-07T07:27:56.092Z,101457.28
2022-08-07T07:30:38.299Z,101432.38
2022-08-07T07:33:11.880Z,101460.28
2022-08-07T07:36:04.442Z,101452.19
2022-08-07T07:38:33.511Z,101451.44
2022-08-07T07:41:05.574Z,101449.69
2022-08-07T07:43:48.199Z,101431.53
2022-08-07T07:46:38.504Z,101451.72
2022-08-07T07:50:35.391Z,101446.28
2022-08-07T07:52:12.761Z,101302.31
2022-08-07T07:54:44.209Z,101436.06
2022-08-07T07:57:51.539Z,101420.00
2022-08-07T08:00:21.076Z,101440.84
2022-08-07T08:03:04.645Z,101427.34
2022-08-07T08:05:51.050Z,101427.34
2022-08-07T08:08:34.741Z,101434.34
2022-08-07T08:11:08.030Z,101436.06
2022-08-07T08:13:53.171Z,101395.13
2022-08-07T08:16:30.096Z,101425.41
2022-08-07T08:19:09.890Z,101421.78
2022-08-07T08:22:07.866Z,101418.84
2022-08-07T08:25:18.615Z,101410.94
2022-08-07T08:27:55.985Z,101419.31
2022-08-07T08:30:26.696Z,101411.41
2022-08-07T08:33:00.641Z,101409.81
2022-08-07T08:35:43.125Z,101317.38
2022-08-07T08:38:17.766Z,101403.72
2022-08-07T08:40:55.588Z,101395.94
2022-08-07T08:43:42.820Z,101397.06
2022-08-07T08:46:29.592Z,101389.50
2022-08-07T08:49:08.077Z,101391.41
2022-08-07T08:52:00.910Z,101392.97
2022-08-07T08:54:39.959Z,101396.25
2022-08-07T08:57:16.353Z,101369.69
2022-08-07T08:59:51.760Z,101387.94
2022-08-07T09:02:35.029Z,101354.16
2022-08-07T09:05:22.506Z,101390.38
2022-08-07T09:08:02.630Z,101376.94
2022-08-07T09:10:44.903Z,101385.31
2022-08-07T09:13:37.919Z,101377.50
2022-08-07T09:16:24.059Z,101374.66
2022-08-07T09:19:51.418Z,101379.06
2022-08-07T09:24:30.510Z,101311.50
2022-08-07T09:25:18.145Z,101369.38
2022-08-07T09:28:00.987Z,101368.63
2022-08-07T09:30:44.155Z,101356.44
2022-08-07T09:33:52.985Z,101280.38
2022-08-07T09:36:22.479Z,101353.03
2022-08-07T09:39:27.490Z,101357.31
2022-08-07T09:42:17.017Z,101357.59
2022-08-07T09:47:23.588Z,101346.19
2022-08-07T09:48:12.204Z,101347.09
2022-08-07T09:50:55.346Z,101327.25
2022-08-07T09:53:25.736Z,101333.59
2022-08-07T09:56:39.277Z,101339.38
2022-08-07T09:59:44.599Z,101327.16
2022-08-07T10:02:35.724Z,101323.16
2022-08-07T10:05:21.677Z,101323.53
2022-08-07T10:08:27.820Z,101313.19
2022-08-07T10:11:16.741Z,101315.97
2022-08-07T10:14:06.881Z,101305.09
2022-08-07T10:17:14.299Z,101303.22
2022-08-07T10:20:00.651Z,101302.16
2022-08-07T10:22:58.708Z,101293.00
2022-08-07T10:25:42.779Z,101295.25
2022-08-07T10:28:39.076Z,101291.56
2022-08-07T10:31:31.505Z,101268.16
2022-08-07T10:34:31.737Z,101213.91
2022-08-07T10:37:14.903Z,101277.91
2022-08-07T10:40:05.730Z,101278.25
2022-08-07T10:42:41.027Z,101216.06
2022-08-07T10:45:44.089Z,101278.59
2022-08-07T10:48:35.015Z,101274.50
2022-08-07T10:51:16.664Z,101260.59
2022-08-07T10:54:07.837Z,101250.56
2022-08-07T10:56:47.399Z,101257.16
2022-08-07T10:59:25.783Z,101266.72
2022-08-07T11:02:11.883Z,101259.16
2022-08-07T11:05:00.060Z,101256.31
2022-08-07T11:07:58.507Z,101251.91
2022-08-07T11:10:37.249Z,101255.06
2022-08-07T11:14:41.748Z,101240.19
2022-08-07T11:16:09.246Z,101240.34
2022-08-07T11:18:43.730Z,101245.56
2022-08-07T11:21:42.805Z,101203.16
2022-08-07T11:24:21.505Z,101123.47
2022-08-07T11:27:00.351Z,101222.78
2022-08-07T11:29:42.896Z,101230.69
2022-08-07T11:32:25.951Z,101197.50
2022-08-07T11:35:00.027Z,101229.47
2022-08-07T11:37:58.398Z,101128.50
2022-08-07T11:40:45.315Z,101221.19
2022-08-07T11:43:29.801Z,101217.84
2022-08-07T11:46:26.544Z,101224.44
2022-08-07T11:49:50.885Z,101211.09
2022-08-07T11:52:07.773Z,101195.56
2022-08-07T11:54:54.937Z,101153.66
2022-08-07T11:57:57.723Z,101229.91
2022-08-07T12:00:32.036Z,101217.03
2022-08-07T12:03:46.033Z,100967.81
2022-08-07T12:07:00.980Z,101080.25
2022-08-07T12:26:02.933Z,101205.75
2022-08-07T12:28:31.225Z,101108.94
2022-08-07T12:31:17.369Z,101192.47
2022-08-07T12:34:01.813Z,101035.00
2022-08-07T12:49:25.718Z,101124.34
2022-08-07T12:52:27.478Z,100948.91
2022-08-07T12:55:16.590Z,100955.88
2022-08-07T12:58:14.714Z,101181.56
2022-08-07T13:00:56.824Z,101078.91
2022-08-07T13:04:01.953Z,101173.59
2022-08-07T13:07:06.501Z,101157.28
2022-08-07T13:10:29.302Z,101165.47
2022-08-07T13:13:48.134Z,101166.78
2022-08-07T13:16:36.632Z,101000.94
2022-08-07T13:22:32.235Z,100898.41
2022-08-07T13:25:29.809Z,101124.34
2022-08-07T13:28:23.960Z,101060.19
2022-08-07T13:37:38.316Z,101114.56
2022-08-07T13:40:36.578Z,101037.06
2022-08-07T13:43:21.640Z,101038.44
2022-08-07T13:46:24.915Z,100941.25
2022-08-07T13:50:33.522Z,101131.03
2022-08-07T13:52:22.490Z,101120.06
2022-08-07T13:55:06.470Z,100931.41
2022-08-07T13:57:59.048Z,101035.25
2022-08-07T14:00:50.366Z,100880.19
2022-08-07T14:04:05.104Z,101125.19
2022-08-07T14:06:22.101Z,101005.16
2022-08-07T14:09:07.514Z,100955.34
2022-08-07T14:12:11.937Z,100879.75
2022-08-07T14:14:50.236Z,101106.25
2022-08-07T14:18:12.833Z,100991.00
2022-08-07T14:20:42.029Z,101095.06
2022-08-07T14:23:31.728Z,100933.19
2022-08-07T14:26:23.672Z,101093.69
2022-08-07T14:29:08.754Z,101029.88
2022-08-07T14:31:56.244Z,101018.97
2022-08-07T14:34:30.869Z,100956.28
2022-08-07T14:37:01.995Z,101044.28
2022-08-07T14:40:17.032Z,101081.91
2022-08-07T14:42:32.503Z,101092.38
2022-08-07T14:45:21.678Z,100918.63
2022-08-07T14:47:51.348Z,101074.97
2022-08-07T14:50:28.016Z,101080.13
2022-08-07T14:53:07.630Z,101000.06
2022-08-07T14:58:32.577Z,101040.00
2022-08-07T15:01:07.532Z,100923.50
2022-08-07T15:03:53.357Z,101066.06
2022-08-07T15:06:25.942Z,101044.66
2022-08-07T15:08:56.044Z,101052.31
2022-08-07T15:14:21.110Z,101011.09
2022-08-07T15:20:33.927Z,101050.16
2022-08-07T15:22:51.673Z,101065.53
2022-08-07T15:25:25.810Z,101066.31
2022-08-07T15:28:34.697Z,101014.41
2022-08-07T15:31:06.414Z,100923.94
2022-08-07T15:33:42.537Z,101023.91
2022-08-07T15:36:12.074Z,101046.53
2022-08-07T15:38:51.773Z,100996.63
2022-08-07T15:42:42.523Z,101052.63
2022-08-07T15:44:24.109Z,101045.69
2022-08-07T15:46:58.523Z,101047.31
2022-08-07T15:50:05.069Z,100988.44
2022-08-07T15:52:29.705Z,100938.88
2022-08-07T15:55:03.493Z,101051.34
2022-08-07T15:57:47.603Z,101020.06
2022-08-07T16:00:31.788Z,100990.66
2022-08-07T16:03:20.908Z,100830.69
2022-08-07T16:05:54.113Z,100863.94
2022-08-07T16:08:31.420Z,100934.84
2022-08-07T16:11:26.815Z,101038.28
2022-08-07T16:14:12.798Z,101030.81
2022-08-07T16:16:57.331Z,100997.94
2022-08-07T16:19:58.876Z,100983.50
2022-08-07T16:22:54.464Z,101023.56
2022-08-07T16:25:55.529Z,101033.97
2022-08-07T16:30:05.887Z,101021.38
2022-08-07T16:31:57.757Z,100942.41
2022-08-07T16:34:48.430Z,101034.25
2022-08-07T16:38:04.502Z,101002.19
2022-08-07T16:41:11.025Z,101030.25
2022-08-07T16:44:03.860Z,100932.59
2022-08-07T16:47:16.732Z,100999.84
2022-08-07T16:50:35.887Z,101009.75
2022-08-07T16:54:01.712Z,100939.00
2022-08-07T16:56:41.070Z,100926.69
2022-08-07T16:59:20.132Z,101030.25
2022-08-07T17:02:03.858Z,100913.06
2022-08-07T17:04:57.719Z,100886.56
2022-08-07T17:07:55.743Z,100718.34
2022-08-07T17:10:34.173Z,100826.69
2022-08-07T17:14:17.365Z,100933.03
2022-08-07T17:16:43.839Z,101033.78
2022-08-07T17:20:00.394Z,101035.34
2022-08-07T17:22:16.467Z,100963.72
2022-08-07T17:25:00.166Z,101031.97
2022-08-07T17:27:51.256Z,100966.28
2022-08-07T17:30:26.625Z,100937.72
2022-08-07T17:34:08.677Z,101022.19
2022-08-07T17:36:13.478Z,100900.94
2022-08-07T17:38:56.127Z,101035.97
2022-08-07T17:42:04.761Z,101034.53
2022-08-07T17:44:45.307Z,101028.59
2022-08-07T17:47:38.063Z,101028.50
2022-08-07T17:50:19.379Z,101037.31
2022-08-07T17:52:55.260Z,100910.47
2022-08-07T17:55:55.652Z,101016.84
2022-08-07T17:58:30.405Z,100977.28
2022-08-07T18:01:20.942Z,101001.31
2022-08-07T18:04:07.041Z,101039.38
2022-08-07T18:06:44.783Z,101042.84
2022-08-07T18:10:06.794Z,101029.69
2022-08-07T18:12:30.464Z,101040.00
2022-08-07T18:15:08.504Z,101045.09
2022-08-07T18:18:47.270Z,101044.00
2022-08-07T18:21:07.324Z,101046.50
2022-08-07T18:23:42.586Z,101056.22
2022-08-07T18:26:19.536Z,101056.22
2022-08-07T18:30:04.263Z,101062.19
2022-08-07T18:32:08.811Z,101060.78
2022-08-07T18:35:00.901Z,101067.16
2022-08-07T18:38:55.947Z,101075.53
2022-08-07T18:40:56.170Z,101075.91
2022-08-07T18:43:49.231Z,101085.00
2022-08-07T18:46:27.162Z,101082.34
2022-08-07T18:50:30.573Z,101090.19
2022-08-07T18:52:33.416Z,101094.09
2022-08-07T18:54:54.919Z,101101.38
2022-08-07T18:57:43.926Z,101105.16
2022-08-07T19:00:42.475Z,101114.59
2022-08-07T19:03:35.604Z,101110.72
2022-08-07T19:06:16.753Z,101120.53
2022-08-07T19:08:58.634Z,101118.16
2022-08-07T19:12:05.065Z,101112.31
2022-08-07T19:14:53.400Z,101119.16
2022-08-07T19:17:55.726Z,101135.19
2022-08-07T19:20:33.767Z,101131.13
2022-08-07T19:23:17.908Z,101133.81
2022-08-07T19:26:23.263Z,101146.34
2022-08-07T19:30:55.365Z,101148.44
2022-08-07T19:32:11.553Z,101159.16
2022-08-07T19:34:32.756Z,101154.19
2022-08-07T19:37:10.274Z,101161.38
2022-08-07T19:39:57.455Z,101162.25
2022-08-07T19:42:39.999Z,101163.06
2022-08-07T19:46:06.155Z,101177.88
2022-08-07T19:48:03.337Z,101166.59
2022-08-07T19:50:44.552Z,101175.22
2022-08-07T19:54:33.334Z,101176.78
2022-08-07T19:56:15.152Z,101168.63
2022-08-07T19:58:59.207Z,101181.94
2022-08-07T20:01:53.002Z,101150.50
2022-08-07T20:04:32.218Z,101160.97
2022-08-07T20:07:10.203Z,101189.56
2022-08-07T20:10:36.759Z,101192.06
2022-08-07T20:12:35.922Z,101176.63
2022-08-07T20:15:09.775Z,101190.00
2022-08-07T20:18:01.455Z,101189.69
2022-08-07T20:20:34.683Z,101193.69
2022-08-07T20:23:23.014Z,101182.53
2022-08-07T20:25:57.264Z,101178.09
2022-08-07T20:28:29.967Z,101203.25
2022-08-07T20:31:00.046Z,101199.44
2022-08-07T20:33:38.028Z,101202.53
2022-08-07T20:36:10.696Z,101203.00
2022-08-07T20:38:59.421Z,101208.72
2022-08-07T20:41:34.241Z,101205.81
2022-08-07T20:44:11.118Z,101200.22
2022-08-07T20:46:44.303Z,101206.03
2022-08-07T20:49:59.477Z,101176.22
2022-08-07T20:52:16.520Z,101199.19
2022-08-07T20:54:53.326Z,101204.97
2022-08-07T20:57:24.629Z,101201.41
2022-08-07T21:00:08.015Z,101213.78
2022-08-07T21:02:58.963Z,101206.03
2022-08-07T21:05:52.915Z,101208.81
2022-08-07T21:08:37.530Z,101213.00
2022-08-07T21:11:12.387Z,101217.06
2022-08-07T21:14:29.803Z,101185.34
2022-08-07T21:16:55.910Z,101217.91
2022-08-07T21:19:32.245Z,101216.59
2022-08-07T21:22:19.547Z,101211.75
2022-08-07T21:25:04.710Z,101213.88
2022-08-07T21:27:53.833Z,101179.47
2022-08-07T21:30:30.098Z,101216.66
2022-08-07T21:33:07.912Z,101224.72
2022-08-07T21:36:06.627Z,101214.16
2022-08-07T21:38:31.315Z,101230.03
2022-08-07T21:41:11.032Z,101235.56
2022-08-07T21:43:55.327Z,101249.69
2022-08-07T21:46:32.283Z,101225.44
2022-08-07T21:49:14.791Z,101247.91
2022-08-07T21:51:54.856Z,101244.78
2022-08-07T21:54:31.481Z,101243.41
2022-08-07T21:57:11.099Z,101242.13
2022-08-07T22:00:06.185Z,101208.97
2022-08-07T22:02:44.240Z,101250.59
2022-08-07T22:05:44.844Z,101249.16
2022-08-07T22:08:06.475Z,101247.88
2022-08-07T22:10:42.330Z,101251.69
2022-08-07T22:13:15.762Z,101249.38
2022-08-07T22:16:42.502Z,101211.56
2022-08-07T22:18:43.236Z,101254.44
2022-08-07T22:21:19.325Z,101254.66
2022-08-07T22:23:53.594Z,101256.66
2022-08-07T22:26:25.019Z,101253.44
2022-08-07T22:29:04.778Z,101260.63
2022-08-07T22:31:59.425Z,101261.75
2022-08-07T22:34:53.489Z,101259.50
2022-08-07T22:38:03.286Z,101258.97
2022-08-07T22:40:27.814Z,101183.44
2022-08-07T22:43:03.718Z,101262.06
2022-08-07T22:46:04.796Z,101264.03
2022-08-07T22:49:12.789Z,101259.28
2022-08-07T22:51:52.313Z,101254.31
2022-08-07T22:54:37.944Z,101254.53
2022-08-07T22:57:17.102Z,101218.69
2022-08-07T23:07:58.939Z,101201.03
2022-08-07T23:10:42.079Z,101149.16
2022-08-07T23:13:29.355Z,101252.31
2022-08-07T23:16:46.667Z,101068.69
2022-08-07T23:19:52.027Z,101270.56
2022-08-07T23:22:37.733Z,101277.75
2022-08-07T23:28:56.443Z,101096.31
2022-08-07T23:34:56.624Z,101284.06
2022-08-07T23:38:01.503Z,101192.38
2022-08-07T23:40:49.374Z,101033.28
2022-08-07T23:43:55.904Z,101171.59
2022-08-07T23:46:48.260Z,101149.25
2022-08-07T23:49:50.067Z,101215.09
2022-08-07T23:53:00.073Z,101280.19
2022-08-07T23:55:53.420Z,101223.03
2022-08-07T23:58:25.078Z,101282.31
